| Date | Time | Temp. (oF) | Dew Point (oF) | Rel. Hum. (%) | Press. (in.) | Wind Dir. | Wind Speed (mph) | Hourly Rainfall (in.) |
|
|---|---|---|---|---|---|---|---|---|---|
| 1 | 11/20 | 00:00 | 37 | 25 | 62 | 29.89 | WNW | 6 | 0.00 |
| 2 | 11/19 | 23:00 | 37 | 27 | 67 | 29.87 | SSW | 4 | 0.00 |
| 3 | 11/19 | 22:00 | 36 | 25 | 65 | 29.85 | SSW | 9 | 0.00 |
| 4 | 11/19 | 21:00 | 36 | 24 | 62 | 29.83 | WSW | 3 | 0.00 |
| 5 | 11/19 | 20:00 | 38 | 24 | 59 | 29.81 | WSW | 7 | 0.00 |
| 6 | 11/19 | 19:00 | 39 | 24 | 56 | 29.79 | NW | 6 | 0.00 |
| 7 | 11/19 | 18:00 | 41 | 26 | 57 | 29.76 | WNW | 3 | 0.00 |
| 8 | 11/19 | 17:00 | 42 | 26 | 54 | 29.73 | WSW | 6 | 0.00 |
| 9 | 11/19 | 16:00 | 43 | 26 | 53 | 29.70 | WSW | 9 | 0.00 |
| 10 | 11/19 | 15:00 | 44 | 24 | 47 | 29.66 | WNW | 16 | 0.00 |
| 11 | 11/19 | 14:00 | 47 | 31 | 54 | 29.63 | NW | 8 | 0.00 |
| 12 | 11/19 | 13:00 | 50 | 30 | 47 | 29.61 | WNW | 13 | 0.00 |
| 13 | 11/19 | 12:00 | 49 | 30 | 49 | 29.61 | SW | 16 | 0.00 |
| 14 | 11/19 | 11:00 | 47 | 31 | 55 | 29.60 | NW | 22 | 0.00 |
| 15 | 11/19 | 10:00 | 48 | 33 | 58 | 29.57 | WSW | 16 | 0.00 |
| 16 | 11/19 | 09:00 | 46 | 34 | 64 | 29.55 | W | 7 | 0.00 |
| 17 | 11/19 | 08:00 | 45 | 33 | 65 | 29.51 | SSE | 6 | 0.00 |
| 18 | 11/19 | 07:00 | 45 | 33 | 65 | 29.45 | WNW | 7 | 0.00 |
| 19 | 11/19 | 06:00 | 47 | 36 | 67 | 29.36 | SW | 11 | 0.00 |
| 20 | 11/19 | 05:00 | 56 | 48 | 77 | 29.27 | WSW | 13 | 0.00 |
| 21 | 11/19 | 04:00 | 56 | 52 | 88 | 29.23 | SSE | 12 | 0.00 |
| 22 | 11/19 | 03:00 | 55 | 52 | 91 | 29.23 | S | 12 | 0.01 |
| 23 | 11/19 | 02:00 | 53 | 52 | 97 | 29.26 | S | 14 | 0.07 |
| 24 | 11/19 | 01:00 | 54 | 51 | 91 | 29.30 | SSW | 10 | 0.04 |